Time;durP1;ratioP1;P1;durP2;ratioP2;P2;SDS_P1;SDS_P2;PMS_P1;PMS_P2;Temp;Humidity;BMP_temperature;BMP_pressure;BME280_temperature;BME280_humidity;BME280_pressure;Samples;Min_cycle;Max_cycle;Signal;HPM_P1;HPM_P2
2023/03/08 00:01:22;;;;;;;13.57;6.57;;;;;;;8.81;50.33;94403.28;5029391;28;20057;-77
2023/03/08 00:03:51;;;;;;;14.52;7.30;;;;;;;8.83;50.03;94410.94;5022124;28;20029;-78
2023/03/08 00:06:17;;;;;;;14.00;6.82;;;;;;;8.72;50.23;94407.59;5009552;28;20095;-78
2023/03/08 00:08:42;;;;;;;15.68;6.95;;;;;;;8.52;50.30;94376.09;5042081;28;20029;-78
2023/03/08 00:11:10;;;;;;;11.63;6.88;;;;;;;8.75;50.70;94432.69;5032473;28;20069;-78
2023/03/08 00:13:36;;;;;;;17.98;7.57;;;;;;;8.37;51.40;94387.59;5008262;28;20038;-78
2023/03/08 00:16:03;;;;;;;18.40;7.47;;;;;;;8.50;51.39;94404.66;5009703;28;20034;-78
2023/03/08 00:18:29;;;;;;;15.38;6.93;;;;;;;8.40;50.96;94404.72;5053265;28;20048;-78
2023/03/08 00:21:10;;;;;;;14.00;7.32;;;;;;;8.72;50.83;94441.19;5012510;28;20045;-78
2023/03/08 00:23:36;;;;;;;14.45;6.82;;;;;;;8.47;50.76;94394.63;5009952;28;20467;-78
2023/03/08 00:26:01;;;;;;;19.92;6.35;;;;;;;8.74;50.65;94431.91;5029288;28;20036;-78
2023/03/08 00:28:27;;;;;;;12.00;5.78;;;;;;;8.19;50.71;94351.28;5027487;28;20095;-78
2023/03/08 00:30:56;;;;;;;13.07;6.32;;;;;;;7.94;51.01;94323.22;5028006;28;20623;-78
2023/03/08 00:33:22;;;;;;;12.77;6.93;;;;;;;8.34;51.28;94382.88;5044046;28;20065;-78
2023/03/08 00:35:58;;;;;;;12.27;7.05;;;;;;;8.59;51.39;94426.78;5044350;28;20408;-78
2023/03/08 00:38:24;;;;;;;13.10;5.97;;;;;;;8.05;51.10;94366.19;5018016;28;20068;-78
2023/03/08 00:40:50;;;;;;;15.10;6.75;;;;;;;8.28;51.92;94414.84;5022214;28;20057;-77
2023/03/08 00:43:16;;;;;;;8.57;5.63;;;;;;;8.32;51.76;94413.25;5028390;28;20377;-78
2023/03/08 00:45:41;;;;;;;14.13;6.07;;;;;;;8.46;51.53;94419.50;5029162;28;20103;-78
2023/03/08 00:48:06;;;;;;;19.45;5.60;;;;;;;8.01;51.68;94359.91;5028710;28;20029;-78
2023/03/08 00:50:32;;;;;;;15.25;5.72;;;;;;;7.93;51.42;94336.72;5012954;28;20041;-77
2023/03/08 00:52:57;;;;;;;17.25;6.47;;;;;;;7.25;51.56;94226.69;5024174;28;20042;-78
2023/03/08 00:55:23;;;;;;;17.13;6.40;;;;;;;7.65;51.98;94309.22;5029600;28;20116;-78
2023/03/08 00:57:48;;;;;;;16.73;6.70;;;;;;;8.24;51.46;94398.75;5028646;28;20033;-78
2023/03/08 01:00:14;;;;;;;12.35;5.88;;;;;;;7.96;51.91;94363.34;5028063;28;20033;-78
2023/03/08 01:02:40;;;;;;;13.70;6.82;;;;;;;8.05;52.14;94366.19;5025682;28;20464;-78
2023/03/08 01:05:07;;;;;;;16.58;6.88;;;;;;;7.67;52.74;94352.75;5026638;28;20041;-78
2023/03/08 01:07:32;;;;;;;13.20;7.03;;;;;;;7.58;52.78;94328.00;5011868;28;20134;-78
2023/03/08 01:09:57;;;;;;;20.00;7.22;;;;;;;7.78;52.43;94373.81;5027068;28;20092;-78
2023/03/08 01:12:24;;;;;;;20.13;8.50;;;;;;;7.48;52.82;94341.25;5022691;28;20512;-79
2023/03/08 01:14:50;;;;;;;12.50;6.57;;;;;;;7.89;52.48;94377.94;5015021;28;20067;-79
2023/03/08 01:17:16;;;;;;;23.73;7.43;;;;;;;7.91;52.91;94379.25;5020189;28;20045;-79
2023/03/08 01:19:41;;;;;;;11.98;6.30;;;;;;;7.13;54.46;94378.38;5008887;28;20468;-78
2023/03/08 01:22:08;;;;;;;13.60;6.35;;;;;;;7.29;54.33;94367.50;5007457;28;20092;-79
2023/03/08 01:24:33;;;;;;;17.40;6.45;;;;;;;7.80;54.13;94419.16;5022265;28;20507;-79
2023/03/08 01:26:59;;;;;;;16.85;7.00;;;;;;;6.91;54.72;94316.28;5014627;28;20106;-78
2023/03/08 01:29:26;;;;;;;16.25;5.82;;;;;;;7.48;54.11;94433.59;5052605;28;20044;-78
2023/03/08 01:31:52;;;;;;;9.48;5.88;;;;;;;7.59;54.22;94435.13;5010937;28;20131;-78
2023/03/08 01:34:18;;;;;;;13.60;6.57;;;;;;;7.70;54.26;94428.72;5009209;28;20034;-78
2023/03/08 01:36:43;;;;;;;16.33;6.80;;;;;;;7.12;54.31;94345.16;5012310;28;20455;-78
2023/03/08 01:39:09;;;;;;;14.75;6.05;;;;;;;7.47;55.20;94425.97;5012339;28;20049;-78
2023/03/08 01:41:34;;;;;;;13.50;5.88;;;;;;;7.11;54.82;94375.22;5015837;28;20041;-78
2023/03/08 01:44:01;;;;;;;13.68;6.13;;;;;;;7.50;54.69;94442.03;5030440;28;20404;-78
2023/03/08 01:46:30;;;;;;;11.27;6.18;;;;;;;7.40;55.21;94447.34;5020051;28;20036;-78
2023/03/08 01:48:55;;;;;;;15.68;7.07;;;;;;;7.58;54.92;94446.75;5012263;28;20420;-78
2023/03/08 01:51:29;;;;;;;12.18;7.10;;;;;;;7.31;54.95;94419.97;5052626;28;20106;-78
2023/03/08 01:53:55;;;;;;;16.05;7.30;;;;;;;7.39;55.37;94435.25;5030675;28;20040;-78
2023/03/08 01:56:22;;;;;;;21.42;7.63;;;;;;;6.93;56.31;94385.34;5029768;28;20033;-78
2023/03/08 01:58:50;;;;;;;25.52;8.02;;;;;;;6.72;57.68;94452.31;5014551;28;20034;-78
2023/03/08 02:01:17;;;;;;;17.40;8.70;;;;;;;6.85;57.42;94424.63;5027832;28;20040;-78
2023/03/08 02:03:44;;;;;;;19.42;9.45;;;;;;;6.10;58.06;94363.91;5031803;28;20030;-78
2023/03/08 02:06:09;;;;;;;17.58;8.30;;;;;;;6.20;58.90;94399.97;5031886;28;20526;-77
2023/03/08 02:08:35;;;;;;;19.90;8.27;;;;;;;6.16;58.31;94365.50;5030279;28;20061;-77
2023/03/08 02:11:01;;;;;;;24.15;7.38;;;;;;;6.49;57.64;94389.66;5046710;28;20032;-77
2023/03/08 02:13:27;;;;;;;19.20;7.53;;;;;;;6.53;57.41;94391.50;5031764;28;20041;-78
2023/03/08 02:15:55;;;;;;;18.00;9.30;;;;;;;6.78;57.20;94409.09;5030513;28;20033;-78
2023/03/08 02:18:21;;;;;;;16.50;8.15;;;;;;;7.03;57.24;94434.56;5024203;28;20501;-78
2023/03/08 02:20:47;;;;;;;19.83;8.25;;;;;;;6.90;56.48;94419.34;5020927;28;20116;-78
2023/03/08 02:23:16;;;;;;;15.13;7.95;;;;;;;6.86;57.43;94450.72;5030050;28;20128;-78
2023/03/08 02:25:53;;;;;;;20.02;8.75;;;;;;;6.49;57.85;94387.03;5031716;28;20483;-76
2023/03/08 02:28:24;;;;;;;21.73;8.15;;;;;;;6.46;57.41;94337.53;5017075;28;20484;-77
2023/03/08 02:30:51;;;;;;;19.92;7.55;;;;;;;6.76;58.34;94449.94;5009993;28;20037;-77
2023/03/08 02:33:17;;;;;;;12.65;7.63;;;;;;;5.96;58.54;94368.13;5028125;28;20041;-77
2023/03/08 02:35:43;;;;;;;13.43;7.38;;;;;;;6.67;57.83;94420.72;5010519;28;20030;-76
2023/03/08 02:38:13;;;;;;;15.13;6.93;;;;;;;6.61;58.85;94437.59;5032003;28;20034;-77
2023/03/08 02:40:39;;;;;;;14.70;7.47;;;;;;;6.56;58.67;94462.09;5029029;28;20025;-76
2023/03/08 02:43:05;;;;;;;17.35;6.93;;;;;;;6.16;58.89;94404.19;5011173;28;20064;-75
2023/03/08 02:45:32;;;;;;;13.88;7.13;;;;;;;6.40;59.22;94467.66;5010572;28;20127;-75
2023/03/08 02:47:58;;;;;;;21.30;7.88;;;;;;;6.19;58.87;94375.50;5009732;28;20026;-75
2023/03/08 02:50:24;;;;;;;17.38;7.50;;;;;;;6.03;58.28;94366.03;5011872;28;20026;-76
2023/03/08 02:52:49;;;;;;;20.98;7.60;;;;;;;6.46;58.03;94424.44;5041337;28;20037;-76
2023/03/08 02:55:15;;;;;;;16.13;8.32;;;;;;;5.99;58.80;94390.50;5020661;28;20030;-76
2023/03/08 02:57:40;;;;;;;16.98;8.38;;;;;;;6.31;59.23;94429.72;5022151;28;20483;-76
2023/03/08 03:00:06;;;;;;;18.88;9.77;;;;;;;6.53;59.18;94459.22;5018649;28;20088;-77
2023/03/08 03:02:32;;;;;;;21.33;8.07;;;;;;;6.35;59.62;94455.25;5053278;28;20064;-76
2023/03/08 03:04:58;;;;;;;19.80;8.55;;;;;;;6.12;58.59;94377.59;5016382;28;20088;-76
2023/03/08 03:07:23;;;;;;;15.75;8.07;;;;;;;6.55;58.84;94443.94;5029616;28;20038;-77
2023/03/08 03:09:49;;;;;;;16.52;7.90;;;;;;;6.55;58.53;94436.03;5031394;28;20033;-76
2023/03/08 03:12:14;;;;;;;14.82;8.07;;;;;;;6.29;58.47;94395.75;5046668;28;20045;-77
2023/03/08 03:14:40;;;;;;;13.02;7.38;;;;;;;6.89;58.07;94481.00;5029791;28;20490;-76
2023/03/08 03:17:05;;;;;;;18.98;8.10;;;;;;;6.83;58.04;94453.88;5014457;28;20114;-77
2023/03/08 03:19:30;;;;;;;17.60;7.78;;;;;;;6.65;58.01;94430.72;5031372;28;20025;-77
2023/03/08 03:21:56;;;;;;;16.30;7.57;;;;;;;7.01;57.71;94478.09;5030883;28;20082;-77
2023/03/08 03:24:21;;;;;;;14.50;6.97;;;;;;;6.66;57.91;94407.81;5029749;28;20021;-77
2023/03/08 03:26:50;;;;;;;13.30;7.25;;;;;;;6.42;58.09;94383.88;5023697;28;20492;-77
2023/03/08 03:29:15;;;;;;;18.58;7.13;;;;;;;6.53;58.50;94435.50;5010251;28;20381;-76
2023/03/08 03:31:41;;;;;;;18.75;6.88;;;;;;;6.81;58.53;94486.81;5020357;28;20037;-76
2023/03/08 03:34:06;;;;;;;25.13;8.25;;;;;;;6.87;58.74;94486.56;5029641;28;20040;-75
2023/03/08 03:36:33;;;;;;;18.85;8.02;;;;;;;6.97;57.70;94483.09;5031674;28;20068;-76
2023/03/08 03:38:58;;;;;;;23.95;8.25;;;;;;;6.82;58.92;94485.78;5031246;28;20033;-75
2023/03/08 03:41:24;;;;;;;19.15;7.40;;;;;;;6.89;58.48;94496.81;5015041;28;20042;-75
2023/03/08 03:43:50;;;;;;;14.65;6.70;;;;;;;6.83;58.95;94480.25;5026815;28;20035;-75
2023/03/08 03:46:18;;;;;;;18.45;7.57;;;;;;;6.43;59.83;94509.25;5029563;28;20120;-75
2023/03/08 03:48:44;;;;;;;21.65;6.95;;;;;;;6.44;60.45;94484.50;5012218;28;20030;-75
2023/03/08 03:51:15;;;;;;;23.63;7.28;;;;;;;6.31;60.25;94483.19;5030749;28;20033;-76
2023/03/08 03:53:41;;;;;;;12.23;6.75;;;;;;;6.62;59.78;94489.25;5025936;28;20091;-76
2023/03/08 03:56:19;;;;;;;16.65;6.22;;;;;;;6.34;59.62;94444.97;5015853;28;20041;-77
2023/03/08 03:58:45;;;;;;;17.20;6.68;;;;;;;6.26;59.18;94400.75;5030671;28;20068;-76
2023/03/08 04:01:15;;;;;;;21.08;6.72;;;;;;;6.59;59.58;94500.28;5045791;28;20068;-77
2023/03/08 04:03:40;;;;;;;15.00;6.75;;;;;;;6.66;59.73;94497.38;5028944;28;20103;-77
2023/03/08 04:06:12;;;;;;;17.73;7.20;;;;;;;6.74;59.48;94502.91;5030261;28;20037;-76
2023/03/08 04:08:41;;;;;;;19.17;7.43;;;;;;;6.81;59.85;94503.44;5030795;28;20399;-76
2023/03/08 04:11:11;;;;;;;21.15;7.45;;;;;;;6.79;59.33;94496.88;5028962;28;20034;-76
2023/03/08 04:13:36;;;;;;;20.95;7.57;;;;;;;6.30;59.93;94420.25;5014462;28;20052;-76
2023/03/08 04:16:36;;;;;;;13.25;6.88;;;;;;;6.75;59.43;94490.53;5008787;28;20507;-76
2023/03/08 04:19:08;;;;;;;18.15;7.72;;;;;;;6.72;59.32;94473.41;5009963;28;20060;-75
2023/03/08 04:21:34;;;;;;;13.80;6.88;;;;;;;6.73;59.04;94474.19;5030446;28;20083;-76
2023/03/08 04:24:00;;;;;;;22.42;6.90;;;;;;;6.40;59.57;94462.38;5030423;28;20116;-76
2023/03/08 04:26:25;;;;;;;14.32;6.72;;;;;;;6.65;60.10;94496.59;5028828;28;20082;-77
2023/03/08 04:28:51;;;;;;;27.05;9.38;;;;;;;6.40;59.22;94442.09;5012766;28;20091;-77
2023/03/08 04:31:20;;;;;;;14.23;7.22;;;;;;;6.75;59.69;94515.03;5017684;28;20392;-77
2023/03/08 04:33:46;;;;;;;17.45;7.57;;;;;;;6.35;59.68;94425.50;5010451;28;20624;-76
2023/03/08 04:36:13;;;;;;;18.80;7.60;;;;;;;6.27;59.30;94431.28;5025935;28;20033;-77
2023/03/08 04:38:39;;;;;;;23.02;7.57;;;;;;;6.43;59.76;94469.75;5030465;28;20041;-77
2023/03/08 04:41:09;;;;;;;17.30;8.13;;;;;;;6.78;59.64;94501.34;5030461;28;20029;-77
2023/03/08 04:43:34;;;;;;;17.13;7.72;;;;;;;6.46;59.92;94459.47;5030040;28;20053;-77
2023/03/08 04:46:00;;;;;;;22.60;8.98;;;;;;;6.30;59.45;94433.41;5029466;28;20573;-76
2023/03/08 04:48:26;;;;;;;15.85;7.68;;;;;;;6.08;59.75;94395.00;5045164;28;20624;-77
2023/03/08 04:50:57;;;;;;;29.67;8.70;;;;;;;6.84;59.67;94496.84;5045132;28;20440;-76
2023/03/08 04:53:22;;;;;;;21.05;8.70;;;;;;;6.55;59.66;94463.16;5020827;28;20034;-77
2023/03/08 04:55:48;;;;;;;20.27;8.65;;;;;;;6.90;59.84;94514.22;5012010;28;20073;-77
2023/03/08 04:58:15;;;;;;;35.25;9.20;;;;;;;6.88;59.36;94521.59;5009537;28;20045;-77
2023/03/08 05:00:41;;;;;;;25.13;8.85;;;;;;;6.92;59.79;94520.03;5028894;28;20083;-76
2023/03/08 05:03:07;;;;;;;39.65;10.15;;;;;;;6.30;60.04;94438.69;5026581;28;20619;-77
2023/03/08 05:05:32;;;;;;;22.40;9.00;;;;;;;5.99;59.48;94386.03;5023936;28;20456;-77
2023/03/08 05:07:58;;;;;;;48.60;14.18;;;;;;;6.82;59.78;94509.50;5021509;28;20021;-77
2023/03/08 05:10:24;;;;;;;68.63;21.90;;;;;;;6.72;59.28;94493.69;5029451;28;20038;-76
2023/03/08 05:12:50;;;;;;;80.55;31.20;;;;;;;6.32;58.05;94458.44;5036563;28;20037;-76
2023/03/08 05:15:15;;;;;;;81.50;27.92;;;;;;;6.33;58.00;94451.34;5020453;28;20558;-76
2023/03/08 05:17:41;;;;;;;56.53;21.52;;;;;;;6.90;57.68;94541.38;5021497;28;20143;-77
2023/03/08 05:20:07;;;;;;;60.65;21.90;;;;;;;6.68;57.48;94511.09;5038974;28;20188;-78
2023/03/08 05:22:33;;;;;;;59.08;20.42;;;;;;;6.41;57.40;94464.72;5018725;28;20118;-76
2023/03/08 05:24:58;;;;;;;45.72;20.80;;;;;;;6.92;57.53;94544.56;5017395;28;20096;-76
2023/03/08 05:27:24;;;;;;;63.97;21.85;;;;;;;6.90;57.95;94545.84;5018363;28;20029;-77
2023/03/08 05:29:51;;;;;;;55.92;21.98;;;;;;;6.71;58.32;94540.34;5012070;28;20064;-77
2023/03/08 05:32:16;;;;;;;55.88;21.02;;;;;;;6.10;58.39;94447.38;5035025;28;20124;-77
2023/03/08 05:34:41;;;;;;;52.85;20.73;;;;;;;5.71;58.46;94404.94;5017853;28;20175;-77
2023/03/08 05:37:07;;;;;;;42.30;17.67;;;;;;;6.45;58.23;94520.31;5010429;28;20048;-76
2023/03/08 05:39:32;;;;;;;51.88;19.48;;;;;;;6.76;57.36;94555.38;5013963;28;20103;-77
2023/03/08 05:41:58;;;;;;;51.67;18.73;;;;;;;6.43;57.22;94501.34;5015761;28;20115;-77
2023/03/08 05:44:23;;;;;;;50.60;20.40;;;;;;;6.74;58.13;94581.19;5011635;28;20564;-77
2023/03/08 05:46:49;;;;;;;62.50;20.27;;;;;;;6.62;58.37;94547.19;5016090;28;20037;-76
2023/03/08 05:49:15;;;;;;;53.55;19.20;;;;;;;6.40;58.26;94510.59;5008158;28;20026;-77
2023/03/08 05:51:40;;;;;;;58.83;19.27;;;;;;;6.72;58.80;94570.09;5046958;28;20198;-76
2023/03/08 05:54:06;;;;;;;59.72;20.85;;;;;;;6.41;58.66;94509.50;5018185;28;20129;-77
2023/03/08 05:56:32;;;;;;;66.93;23.05;;;;;;;6.50;58.77;94523.75;5021029;28;20107;-76
2023/03/08 05:58:58;;;;;;;49.88;21.38;;;;;;;6.58;58.52;94538.22;5021465;28;20547;-77
2023/03/08 06:01:25;;;;;;;67.03;20.42;;;;;;;6.34;58.79;94492.38;5035397;28;20033;-76
2023/03/08 06:03:53;;;;;;;39.70;20.15;;;;;;;7.02;58.97;94599.09;5019676;28;20033;-77
2023/03/08 06:06:22;;;;;;;43.75;19.73;;;;;;;7.06;58.57;94597.53;5009923;28;20029;-79
2023/03/08 06:08:47;;;;;;;48.83;19.73;;;;;;;6.76;58.68;94552.72;5015234;28;20034;-80
2023/03/08 06:11:14;;;;;;;58.20;20.85;;;;;;;7.18;58.43;94610.41;5007829;28;20041;-82
2023/03/08 06:13:40;;;;;;;55.35;20.70;;;;;;;6.48;58.46;94499.53;5010752;28;20048;-83
2023/03/08 06:16:06;;;;;;;61.10;20.00;;;;;;;7.30;58.08;94606.47;5015277;28;20040;-83
2023/03/08 06:18:34;;;;;;;49.65;20.08;;;;;;;6.58;58.28;94501.34;5010332;28;20267;-84
2023/03/08 06:21:09;;;;;;;46.22;19.48;;;;;;;6.73;58.36;94511.88;5006975;28;20321;-81
2023/03/08 06:23:35;;;;;;;47.55;18.63;;;;;;;6.94;57.74;94539.03;5003688;28;21095;-82
2023/03/08 06:26:01;;;;;;;48.30;19.63;;;;;;;7.46;58.09;94622.25;5016203;28;20038;-80
2023/03/08 06:28:28;;;;;;;46.90;19.25;;;;;;;7.53;57.84;94625.41;5005434;28;20033;-80
2023/03/08 06:30:54;;;;;;;49.38;19.67;;;;;;;6.94;57.51;94520.56;5010324;28;20033;-79
2023/03/08 06:33:26;;;;;;;59.83;19.10;;;;;;;7.52;57.50;94598.22;5013395;28;20404;-80
2023/03/08 06:36:02;;;;;;;47.50;17.65;;;;;;;7.25;57.68;94560.81;5015332;28;20233;-80
2023/03/08 06:38:29;;;;;;;35.30;15.65;;;;;;;7.39;57.72;94588.25;5012719;28;20526;-80
2023/03/08 06:40:55;;;;;;;41.10;14.20;;;;;;;7.50;57.84;94578.44;5015148;28;20116;-80
2023/03/08 06:43:21;;;;;;;32.90;14.18;;;;;;;7.81;57.89;94630.06;5036460;28;20313;-79
2023/03/08 06:45:46;;;;;;;40.30;15.10;;;;;;;7.59;57.92;94580.28;5013824;28;20755;-78
2023/03/08 06:48:12;;;;;;;30.90;13.63;;;;;;;7.96;57.73;94637.94;5016388;28;20028;-80
2023/03/08 06:50:38;;;;;;;29.90;12.68;;;;;;;7.50;57.33;94560.75;5014643;28;20037;-80
2023/03/08 06:53:04;;;;;;;39.83;12.32;;;;;;;8.15;56.99;94643.44;5031384;28;20124;-81
2023/03/08 06:55:29;;;;;;;34.25;12.43;;;;;;;7.81;56.79;94579.13;5035930;28;20064;-80
2023/03/08 06:57:54;;;;;;;38.30;11.85;;;;;;;7.88;56.55;94580.41;5011254;28;20044;-80
2023/03/08 07:00:21;;;;;;;23.08;11.38;;;;;;;7.72;56.58;94577.06;5017664;28;20041;-80
2023/03/08 07:02:48;;;;;;;28.40;9.90;;;;;;;7.58;56.77;94559.41;5006154;28;20136;-86
2023/03/08 07:05:15;;;;;;;25.00;9.80;;;;;;;7.96;56.71;94605.47;5009534;28;20411;-79
2023/03/08 07:07:43;;;;;;;19.48;9.00;;;;;;;7.90;56.18;94580.94;5008603;28;20047;-79
2023/03/08 07:10:13;;;;;;;23.25;9.20;;;;;;;7.84;56.89;94584.69;5002198;28;20034;-84
2023/03/08 07:12:42;;;;;;;20.60;8.23;;;;;;;8.27;56.88;94672.16;5007948;28;20076;-82
2023/03/08 07:15:09;;;;;;;20.20;7.93;;;;;;;8.47;56.51;94666.81;5010939;28;20099;-79
2023/03/08 07:17:35;;;;;;;18.15;7.20;;;;;;;8.11;56.47;94593.00;5013924;28;20152;-79
2023/03/08 07:20:04;;;;;;;19.27;8.20;;;;;;;7.92;57.01;94573.56;5015031;28;20056;-80
2023/03/08 07:22:29;;;;;;;19.67;9.23;;;;;;;7.90;56.73;94573.03;5007145;28;20133;-79
2023/03/08 07:24:55;;;;;;;19.55;7.70;;;;;;;8.11;56.35;94573.72;5012472;28;20115;-79
2023/03/08 07:27:20;;;;;;;15.68;7.10;;;;;;;8.56;57.05;94669.66;5011616;28;20037;-80
2023/03/08 07:29:46;;;;;;;20.52;7.60;;;;;;;8.55;57.33;94650.38;5017259;28;20037;-81
2023/03/08 07:32:11;;;;;;;16.30;6.30;;;;;;;8.85;56.34;94654.69;5010895;28;20072;-80
2023/03/08 07:34:36;;;;;;;23.65;8.25;;;;;;;8.51;55.97;94596.50;5015840;28;20099;-80
2023/03/08 07:37:02;;;;;;;17.35;7.53;;;;;;;7.99;55.93;94534.44;5017741;28;20041;-79
2023/03/08 07:39:27;;;;;;;16.27;7.45;;;;;;;8.11;56.10;94552.59;5014998;28;20806;-79
2023/03/08 07:41:53;;;;;;;21.98;8.95;;;;;;;7.73;56.39;94515.28;5010851;28;20053;-78
2023/03/08 07:44:18;;;;;;;18.58;8.60;;;;;;;8.54;55.82;94572.19;5012657;28;20037;-77
2023/03/08 07:46:45;;;;;;;26.42;8.50;;;;;;;8.28;55.82;94515.25;5035290;28;20037;-81
2023/03/08 07:49:10;;;;;;;17.38;7.85;;;;;;;8.50;55.44;94555.28;5012165;28;20037;-79
2023/03/08 07:51:36;;;;;;;14.70;7.20;;;;;;;9.22;55.07;94633.00;5005206;28;20052;-82
2023/03/08 07:54:02;;;;;;;25.42;8.27;;;;;;;9.01;55.06;94576.81;5007416;28;20592;-80
2023/03/08 07:56:28;;;;;;;25.50;8.23;;;;;;;8.26;54.61;94456.59;5011200;28;20041;-80
2023/03/08 07:58:57;;;;;;;20.33;8.52;;;;;;;9.53;54.52;94620.28;5013760;28;20131;-87
2023/03/08 08:01:22;;;;;;;21.30;8.25;;;;;;;9.60;53.98;94623.41;5016397;28;20068;-81
2023/03/08 08:03:49;;;;;;;27.02;8.15;;;;;;;10.00;53.63;94675.91;5018233;28;20025;-84
2023/03/08 08:06:14;;;;;;;13.90;7.55;;;;;;;9.42;53.46;94566.66;5023382;28;20036;-86
2023/03/08 08:08:40;;;;;;;18.42;7.75;;;;;;;9.17;53.08;94556.31;5027538;28;20041;-84
2023/03/08 08:11:14;;;;;;;19.08;7.85;;;;;;;10.27;53.19;94678.03;5019829;28;20797;-81
2023/03/08 08:13:39;;;;;;;18.42;8.48;;;;;;;9.95;53.29;94614.25;5007973;28;20723;-80
2023/03/08 08:16:06;;;;;;;15.23;7.40;;;;;;;9.88;52.82;94590.78;5013177;28;20032;-79
2023/03/08 08:18:32;;;;;;;24.52;8.07;;;;;;;10.54;52.30;94679.28;5008257;28;20695;-79
2023/03/08 08:21:01;;;;;;;29.67;9.95;;;;;;;10.43;52.37;94678.66;5011665;28;20122;-79
2023/03/08 08:23:27;;;;;;;28.30;10.60;;;;;;;9.91;52.75;94578.84;5012640;28;20478;-79
2023/03/08 08:25:54;;;;;;;25.23;10.57;;;;;;;10.50;52.43;94662.41;5015533;28;20033;-80
2023/03/08 08:28:21;;;;;;;17.15;9.65;;;;;;;10.68;51.97;94680.94;5013525;28;20506;-79
2023/03/08 08:31:02;;;;;;;22.67;9.45;;;;;;;10.24;51.75;94620.28;5011374;28;20029;-79
2023/03/08 08:33:29;;;;;;;28.92;9.68;;;;;;;10.69;51.99;94658.66;5012123;28;20033;-80
2023/03/08 08:35:55;;;;;;;25.02;9.50;;;;;;;10.24;52.05;94615.00;5016541;28;20033;-79
2023/03/08 08:38:21;;;;;;;25.02;9.88;;;;;;;10.68;51.68;94696.88;5031064;28;20042;-80
2023/03/08 08:40:47;;;;;;;26.40;10.93;;;;;;;10.40;52.84;94687.94;5016911;28;20072;-80
2023/03/08 08:43:12;;;;;;;21.60;9.65;;;;;;;10.59;51.97;94685.34;4995190;28;20057;-80
2023/03/08 08:45:48;;;;;;;24.15;9.80;;;;;;;10.05;51.56;94564.59;5013682;28;20385;-79
2023/03/08 08:48:13;;;;;;;19.17;9.52;;;;;;;10.29;51.59;94572.53;5007697;28;20087;-79
2023/03/08 08:50:40;;;;;;;20.92;10.60;;;;;;;10.24;51.21;94551.38;5009991;28;20037;-81
2023/03/08 08:53:07;;;;;;;22.55;11.25;;;;;;;11.22;50.69;94680.44;5009123;28;20037;-81
2023/03/08 08:55:32;;;;;;;23.33;9.98;;;;;;;11.16;50.76;94641.78;5012137;28;20065;-84
2023/03/08 08:57:58;;;;;;;20.80;9.13;;;;;;;11.02;50.94;94614.44;5017017;28;20076;-83
2023/03/08 09:00:24;;;;;;;24.17;11.88;;;;;;;11.51;50.77;94679.50;5016834;28;21328;-81
2023/03/08 09:02:49;;;;;;;31.50;11.75;;;;;;;11.46;50.54;94653.00;5008136;28;20080;-79
2023/03/08 09:05:15;;;;;;;29.52;11.18;;;;;;;10.62;50.37;94519.56;5010416;28;20037;-80
2023/03/08 09:07:40;;;;;;;24.08;11.25;;;;;;;11.39;49.97;94624.16;5010896;28;20111;-79
2023/03/08 09:10:07;;;;;;;31.23;10.10;;;;;;;11.11;49.51;94566.78;5014016;28;20484;-78
2023/03/08 09:12:32;;;;;;;25.90;9.98;;;;;;;11.45;49.16;94612.38;5010340;28;20125;-79
2023/03/08 09:14:57;;;;;;;24.73;11.05;;;;;;;11.90;49.36;94682.53;5003778;28;20033;-80
2023/03/08 09:17:23;;;;;;;35.90;11.38;;;;;;;11.40;49.01;94609.03;5009759;28;20044;-80
2023/03/08 09:19:48;;;;;;;26.23;10.15;;;;;;;11.88;49.22;94674.09;5007223;28;20056;-82
2023/03/08 09:22:14;;;;;;;25.75;10.52;;;;;;;11.07;48.88;94571.88;5008346;28;20119;-79
2023/03/08 09:24:39;;;;;;;30.73;10.70;;;;;;;11.88;48.67;94654.69;5012600;28;20044;-80
2023/03/08 09:27:06;;;;;;;19.23;9.40;;;;;;;12.17;48.17;94667.69;5033290;28;20459;-80
2023/03/08 09:29:33;;;;;;;28.83;10.60;;;;;;;11.87;48.21;94586.69;5007285;28;20034;-80
2023/03/08 09:31:59;;;;;;;18.75;9.48;;;;;;;11.99;47.96;94603.72;5011955;28;20042;-78
2023/03/08 09:34:25;;;;;;;24.38;9.18;;;;;;;12.02;47.02;94586.41;5016060;28;20368;-79
2023/03/08 09:36:51;;;;;;;25.38;8.70;;;;;;;12.24;46.84;94593.66;5015204;28;20480;-82
2023/03/08 09:39:16;;;;;;;19.65;9.88;;;;;;;11.86;47.28;94564.66;5015788;28;20040;-81
2023/03/08 09:41:58;;;;;;;30.73;10.57;;;;;;;12.35;48.17;94656.97;5014795;28;20037;-80
2023/03/08 09:44:43;;;;;;;;;;;;;;;11.50;48.18;94577.00;5010890;28;20099;-79
2023/03/08 09:47:31;;;;;;;22.65;11.05;;;;;;;11.94;47.95;94614.44;5014089;28;20103;-85
2023/03/08 09:50:12;;;;;;;27.27;10.23;;;;;;;12.37;47.54;94652.13;5016824;28;20116;-84
2023/03/08 09:53:04;;;;;;;30.10;10.93;;;;;;;12.55;47.63;94647.78;5010538;28;20033;-82
2023/03/08 09:55:33;;;;;;;21.35;9.45;;;;;;;12.46;47.03;94604.34;5010949;28;20294;-81
2023/03/08 09:58:37;;;;;;;19.02;9.82;;;;;;;12.68;47.61;94635.53;5013328;28;20033;-82
2023/03/08 10:01:18;;;;;;;28.23;10.20;;;;;;;12.28;47.50;94622.00;5012662;28;20049;-83
2023/03/08 10:03:58;;;;;;;27.85;10.98;;;;;;;11.85;48.41;94586.19;5019462;28;20034;-81
2023/03/08 10:06:35;;;;;;;21.77;10.13;;;;;;;11.92;48.60;94579.41;5035024;28;20037;-82
2023/03/08 10:09:35;;;;;;;27.65;9.88;;;;;;;12.32;48.08;94633.63;5019900;28;20471;-81
2023/03/08 10:12:10;;;;;;;29.08;10.90;;;;;;;12.94;46.55;94630.44;5019750;28;20116;-81
2023/03/08 10:14:41;;;;;;;27.20;10.45;;;;;;;13.85;44.99;94623.69;5041591;28;20037;-82
2023/03/08 10:17:18;;;;;;;23.77;9.65;;;;;;;15.06;42.51;94632.00;5023091;28;20752;-83
2023/03/08 10:19:57;;;;;;;30.42;9.27;;;;;;;15.34;41.63;94621.75;5020466;28;20034;-81
2023/03/08 10:22:33;;;;;;;20.45;8.85;;;;;;;14.98;41.11;94571.38;5020580;28;20710;-81
2023/03/08 10:25:17;;;;;;;27.48;8.88;;;;;;;16.44;39.79;94627.09;5018644;28;20029;-82
2023/03/08 10:27:47;;;;;;;20.55;8.20;;;;;;;16.40;38.23;94534.44;5017658;28;20064;-83
2023/03/08 10:30:15;;;;;;;23.70;9.77;;;;;;;17.49;37.80;94626.03;5020428;28;20080;-82
2023/03/08 10:32:48;;;;;;;14.20;8.38;;;;;;;17.67;36.90;94619.44;5013339;28;20206;-87
2023/03/08 10:35:15;;;;;;;17.48;9.15;;;;;;;17.66;36.34;94536.66;5017290;28;20315;-83
2023/03/08 10:37:40;;;;;;;15.30;8.45;;;;;;;18.49;35.56;94620.19;5010506;28;20041;-81
2023/03/08 10:40:17;;;;;;;21.45;8.32;;;;;;;18.24;35.31;94543.47;5009734;28;20029;-81
2023/03/08 10:42:58;;;;;;;19.85;9.15;;;;;;;18.26;34.74;94525.13;5011819;28;20333;-82
2023/03/08 10:45:24;;;;;;;19.23;8.40;;;;;;;18.74;34.27;94566.50;5017225;28;20104;-82
2023/03/08 10:47:58;;;;;;;18.50;8.15;;;;;;;18.49;34.25;94488.63;5009329;28;20068;-81
2023/03/08 10:50:27;;;;;;;18.67;8.45;;;;;;;18.72;34.14;94515.81;5018060;28;20071;-83
2023/03/08 10:52:54;;;;;;;15.35;6.88;;;;;;;19.45;33.82;94606.13;5022011;28;20029;-83
2023/03/08 10:55:28;;;;;;;19.48;7.25;;;;;;;18.37;33.49;94525.47;5040209;28;20060;-82
2023/03/08 10:57:58;;;;;;;23.23;8.35;;;;;;;17.83;34.01;94477.44;5010970;28;20025;-81
2023/03/08 11:00:33;;;;;;;19.73;8.88;;;;;;;17.97;34.81;94593.25;5019564;28;20037;-83
2023/03/08 11:03:11;;;;;;;17.58;8.27;;;;;;;17.93;34.94;94589.63;5013649;28;20802;-83
2023/03/08 11:05:36;;;;;;;21.05;6.55;;;;;;;17.69;34.81;94593.09;5040213;28;20064;-81
2023/03/08 11:08:03;;;;;;;16.58;6.50;;;;;;;16.21;35.43;94417.91;5016320;28;20065;-81
2023/03/08 11:10:31;;;;;;;23.00;8.18;;;;;;;16.27;35.71;94439.91;5032427;28;20033;-85
2023/03/08 11:13:33;;;;;;;15.05;6.68;;;;;;;16.63;36.62;94573.16;5019340;28;20097;-88
2023/03/08 11:16:25;;;;;;;13.82;6.65;;;;;;;16.03;37.14;94496.69;5011526;28;20045;-79
2023/03/08 11:19:40;;;;;;;19.02;6.20;;;;;;;15.44;36.71;94362.25;5016267;28;20061;-79
2023/03/08 11:22:27;;;;;;;16.40;6.18;;;;;;;16.11;38.59;94509.25;4993082;28;20525;-80
2023/03/08 11:25:31;;;;;;;20.15;6.43;;;;;;;16.44;37.87;94546.03;5014668;28;20041;-81
2023/03/08 11:28:18;;;;;;;19.35;5.75;;;;;;;16.56;38.20;94540.75;5020537;28;20135;-79
2023/03/08 11:31:17;;;;;;;27.15;7.45;;;;;;;16.85;37.59;94532.69;5010567;28;20530;-79
2023/03/08 11:34:20;;;;;;;17.27;5.30;;;;;;;16.86;36.85;94533.47;5018930;28;20041;-79
2023/03/08 11:36:45;;;;;;;8.65;3.20;;;;;;;17.26;35.95;94528.38;5002622;28;20128;-80